sensor_id;sensor_type;location;lat;lon;timestamp;temperature;humidity
47482;DHT22;33219;47.410;9.730;2024-01-30T00:00:25;-1.40;99.90
47482;DHT22;33219;47.410;9.730;2024-01-30T00:02:52;-1.40;99.90
47482;DHT22;33219;47.410;9.730;2024-01-30T00:05:19;-1.40;99.90
47482;DHT22;33219;47.410;9.730;2024-01-30T00:07:45;-1.40;99.90
47482;DHT22;33219;47.410;9.730;2024-01-30T00:10:12;-1.40;99.90
47482;DHT22;33219;47.410;9.730;2024-01-30T00:12:39;-1.50;99.90
47482;DHT22;33219;47.410;9.730;2024-01-30T00:15:06;-1.50;99.90
47482;DHT22;33219;47.410;9.730;2024-01-30T00:17:35;-1.50;99.90
47482;DHT22;33219;47.410;9.730;2024-01-30T00:20:02;-1.50;99.90
47482;DHT22;33219;47.410;9.730;2024-01-30T00:22:33;-1.50;99.90
47482;DHT22;33219;47.410;9.730;2024-01-30T00:25:00;-1.40;99.90
47482;DHT22;33219;47.410;9.730;2024-01-30T00:27:27;-1.40;99.90
47482;DHT22;33219;47.410;9.730;2024-01-30T00:29:53;-1.40;99.90
47482;DHT22;33219;47.410;9.730;2024-01-30T00:32:20;-1.40;99.90
47482;DHT22;33219;47.410;9.730;2024-01-30T00:34:48;-1.40;99.90
47482;DHT22;33219;47.410;9.730;2024-01-30T00:37:15;-1.40;99.90
47482;DHT22;33219;47.410;9.730;2024-01-30T00:39:42;-1.40;99.90
47482;DHT22;33219;47.410;9.730;2024-01-30T00:42:09;-1.40;99.90
47482;DHT22;33219;47.410;9.730;2024-01-30T00:44:36;-1.40;99.90
47482;DHT22;33219;47.410;9.730;2024-01-30T00:47:06;-1.40;99.90
47482;DHT22;33219;47.410;9.730;2024-01-30T00:49:33;-1.40;99.90
47482;DHT22;33219;47.410;9.730;2024-01-30T00:52:00;-1.40;99.90
47482;DHT22;33219;47.410;9.730;2024-01-30T00:54:26;-1.40;99.90
47482;DHT22;33219;47.410;9.730;2024-01-30T00:56:53;-1.40;99.90
47482;DHT22;33219;47.410;9.730;2024-01-30T00:59:20;-1.40;99.90
47482;DHT22;33219;47.410;9.730;2024-01-30T01:01:47;-1.40;99.90
47482;DHT22;33219;47.410;9.730;2024-01-30T01:04:14;-1.40;99.90
47482;DHT22;33219;47.410;9.730;2024-01-30T01:06:41;-1.40;99.90
47482;DHT22;33219;47.410;9.730;2024-01-30T01:09:10;-1.40;99.90
47482;DHT22;33219;47.410;9.730;2024-01-30T01:11:37;-1.40;99.90
47482;DHT22;33219;47.410;9.730;2024-01-30T01:14:04;-1.40;99.90
47482;DHT22;33219;47.410;9.730;2024-01-30T01:16:31;-1.40;99.90
47482;DHT22;33219;47.410;9.730;2024-01-30T01:18:58;-1.40;99.90
47482;DHT22;33219;47.410;9.730;2024-01-30T01:21:26;-1.40;99.90
47482;DHT22;33219;47.410;9.730;2024-01-30T01:23:52;-1.40;99.90
47482;DHT22;33219;47.410;9.730;2024-01-30T01:26:20;-1.50;99.90
47482;DHT22;33219;47.410;9.730;2024-01-30T01:28:47;-1.50;99.90
47482;DHT22;33219;47.410;9.730;2024-01-30T01:31:14;-1.50;99.90
47482;DHT22;33219;47.410;9.730;2024-01-30T01:33:41;-1.50;99.90
47482;DHT22;33219;47.410;9.730;2024-01-30T01:36:08;-1.50;99.90
47482;DHT22;33219;47.410;9.730;2024-01-30T01:38:35;-1.50;99.90
47482;DHT22;33219;47.410;9.730;2024-01-30T01:41:02;-1.50;99.90
47482;DHT22;33219;47.410;9.730;2024-01-30T01:43:29;-1.40;99.90
47482;DHT22;33219;47.410;9.730;2024-01-30T01:45:56;-1.40;99.90
47482;DHT22;33219;47.410;9.730;2024-01-30T01:48:23;-1.40;99.90
47482;DHT22;33219;47.410;9.730;2024-01-30T01:50:50;-1.40;99.90
47482;DHT22;33219;47.410;9.730;2024-01-30T01:53:18;-1.40;99.90
47482;DHT22;33219;47.410;9.730;2024-01-30T01:55:45;-1.40;99.90
47482;DHT22;33219;47.410;9.730;2024-01-30T01:58:12;-1.40;99.90
47482;DHT22;33219;47.410;9.730;2024-01-30T02:00:39;-1.40;99.90
47482;DHT22;33219;47.410;9.730;2024-01-30T02:03:08;-1.30;99.90
47482;DHT22;33219;47.410;9.730;2024-01-30T02:05:35;-1.30;99.90
47482;DHT22;33219;47.410;9.730;2024-01-30T02:08:03;-1.30;99.90
47482;DHT22;33219;47.410;9.730;2024-01-30T02:10:29;-1.30;99.90
47482;DHT22;33219;47.410;9.730;2024-01-30T02:12:57;-1.30;99.90
47482;DHT22;33219;47.410;9.730;2024-01-30T02:15:23;-1.30;99.90
47482;DHT22;33219;47.410;9.730;2024-01-30T02:17:50;-1.40;99.90
47482;DHT22;33219;47.410;9.730;2024-01-30T02:20:17;-1.40;99.90
47482;DHT22;33219;47.410;9.730;2024-01-30T02:22:44;-1.40;99.90
47482;DHT22;33219;47.410;9.730;2024-01-30T02:25:11;-1.40;99.90
47482;DHT22;33219;47.410;9.730;2024-01-30T02:27:38;-1.40;99.90
47482;DHT22;33219;47.410;9.730;2024-01-30T02:30:05;-1.40;99.90
47482;DHT22;33219;47.410;9.730;2024-01-30T02:32:32;-1.40;99.90
47482;DHT22;33219;47.410;9.730;2024-01-30T02:34:58;-1.40;99.90
47482;DHT22;33219;47.410;9.730;2024-01-30T02:37:25;-1.40;99.90
47482;DHT22;33219;47.410;9.730;2024-01-30T02:39:52;-1.50;99.90
47482;DHT22;33219;47.410;9.730;2024-01-30T02:42:19;-1.50;99.90
47482;DHT22;33219;47.410;9.730;2024-01-30T02:44:46;-1.40;99.90
47482;DHT22;33219;47.410;9.730;2024-01-30T02:47:12;-1.60;99.90
47482;DHT22;33219;47.410;9.730;2024-01-30T02:49:40;-1.60;99.90
47482;DHT22;33219;47.410;9.730;2024-01-30T02:52:06;-1.60;99.90
47482;DHT22;33219;47.410;9.730;2024-01-30T02:54:33;-1.60;99.90
47482;DHT22;33219;47.410;9.730;2024-01-30T02:57:00;-1.60;99.90
47482;DHT22;33219;47.410;9.730;2024-01-30T02:59:27;-1.60;99.90
47482;DHT22;33219;47.410;9.730;2024-01-30T03:01:53;-1.60;99.90
47482;DHT22;33219;47.410;9.730;2024-01-30T03:04:20;-1.60;99.90
47482;DHT22;33219;47.410;9.730;2024-01-30T03:06:47;-1.60;99.90
47482;DHT22;33219;47.410;9.730;2024-01-30T03:09:16;-1.60;99.90
47482;DHT22;33219;47.410;9.730;2024-01-30T03:11:42;-1.50;99.90
47482;DHT22;33219;47.410;9.730;2024-01-30T03:14:09;-1.50;99.90
47482;DHT22;33219;47.410;9.730;2024-01-30T03:16:39;-1.50;99.90
47482;DHT22;33219;47.410;9.730;2024-01-30T03:19:06;-1.50;99.90
47482;DHT22;33219;47.410;9.730;2024-01-30T03:21:35;-1.50;99.90
47482;DHT22;33219;47.410;9.730;2024-01-30T03:24:02;-1.50;99.90
47482;DHT22;33219;47.410;9.730;2024-01-30T03:26:28;-1.60;99.90
47482;DHT22;33219;47.410;9.730;2024-01-30T03:28:55;-1.60;99.90
47482;DHT22;33219;47.410;9.730;2024-01-30T03:31:22;-1.70;99.90
47482;DHT22;33219;47.410;9.730;2024-01-30T03:33:49;-1.70;99.90
47482;DHT22;33219;47.410;9.730;2024-01-30T03:36:16;-1.70;99.90
47482;DHT22;33219;47.410;9.730;2024-01-30T03:38:43;-1.70;99.90
47482;DHT22;33219;47.410;9.730;2024-01-30T03:41:10;-1.70;99.90
47482;DHT22;33219;47.410;9.730;2024-01-30T03:43:37;-1.70;99.90
47482;DHT22;33219;47.410;9.730;2024-01-30T03:46:03;-1.80;99.90
47482;DHT22;33219;47.410;9.730;2024-01-30T03:48:30;-1.70;99.90
47482;DHT22;33219;47.410;9.730;2024-01-30T03:50:57;-1.80;99.90
47482;DHT22;33219;47.410;9.730;2024-01-30T03:53:24;-1.80;99.90
47482;DHT22;33219;47.410;9.730;2024-01-30T03:55:51;-1.80;99.90
47482;DHT22;33219;47.410;9.730;2024-01-30T03:58:18;-1.80;99.90
47482;DHT22;33219;47.410;9.730;2024-01-30T04:00:45;-1.90;99.90
47482;DHT22;33219;47.410;9.730;2024-01-30T04:03:11;-1.90;99.90
47482;DHT22;33219;47.410;9.730;2024-01-30T04:05:38;-2.00;99.90
47482;DHT22;33219;47.410;9.730;2024-01-30T04:08:05;-2.00;99.90
47482;DHT22;33219;47.410;9.730;2024-01-30T04:10:32;-2.00;99.90
47482;DHT22;33219;47.410;9.730;2024-01-30T04:12:59;-2.00;99.90
47482;DHT22;33219;47.410;9.730;2024-01-30T04:15:26;-2.10;99.90
47482;DHT22;33219;47.410;9.730;2024-01-30T04:17:57;-2.00;99.90
47482;DHT22;33219;47.410;9.730;2024-01-30T04:20:23;-2.00;99.90
47482;DHT22;33219;47.410;9.730;2024-01-30T04:22:50;-2.10;99.90
47482;DHT22;33219;47.410;9.730;2024-01-30T04:25:17;-2.10;99.90
47482;DHT22;33219;47.410;9.730;2024-01-30T04:27:44;-2.10;99.90
47482;DHT22;33219;47.410;9.730;2024-01-30T04:30:11;-2.10;99.90
47482;DHT22;33219;47.410;9.730;2024-01-30T04:32:37;-2.20;99.90
47482;DHT22;33219;47.410;9.730;2024-01-30T04:35:04;-2.20;99.90
47482;DHT22;33219;47.410;9.730;2024-01-30T04:37:31;-2.30;99.90
47482;DHT22;33219;47.410;9.730;2024-01-30T04:39:58;-2.30;99.90
47482;DHT22;33219;47.410;9.730;2024-01-30T04:42:26;-2.20;99.90
47482;DHT22;33219;47.410;9.730;2024-01-30T04:44:53;-2.20;99.90
47482;DHT22;33219;47.410;9.730;2024-01-30T04:47:19;-2.20;99.90
47482;DHT22;33219;47.410;9.730;2024-01-30T04:49:46;-2.30;99.90
47482;DHT22;33219;47.410;9.730;2024-01-30T04:52:13;-2.30;99.90
47482;DHT22;33219;47.410;9.730;2024-01-30T04:54:40;-2.30;99.90
47482;DHT22;33219;47.410;9.730;2024-01-30T04:57:07;-2.30;99.90
47482;DHT22;33219;47.410;9.730;2024-01-30T04:59:35;-2.40;99.90
47482;DHT22;33219;47.410;9.730;2024-01-30T05:02:02;-2.30;99.90
47482;DHT22;33219;47.410;9.730;2024-01-30T05:04:29;-2.30;99.90
47482;DHT22;33219;47.410;9.730;2024-01-30T05:06:56;-2.40;99.90
47482;DHT22;33219;47.410;9.730;2024-01-30T05:09:23;-2.40;99.90
47482;DHT22;33219;47.410;9.730;2024-01-30T05:11:49;-2.40;99.90
47482;DHT22;33219;47.410;9.730;2024-01-30T05:14:16;-2.50;99.90
47482;DHT22;33219;47.410;9.730;2024-01-30T05:16:43;-2.50;99.90
47482;DHT22;33219;47.410;9.730;2024-01-30T05:19:13;-2.50;99.90
47482;DHT22;33219;47.410;9.730;2024-01-30T05:21:40;-2.50;99.90
47482;DHT22;33219;47.410;9.730;2024-01-30T05:24:07;-2.40;99.90
47482;DHT22;33219;47.410;9.730;2024-01-30T05:26:35;-2.40;99.90
47482;DHT22;33219;47.410;9.730;2024-01-30T05:29:02;-2.40;99.90
47482;DHT22;33219;47.410;9.730;2024-01-30T05:31:29;-2.40;99.90
47482;DHT22;33219;47.410;9.730;2024-01-30T05:33:56;-2.40;99.90
47482;DHT22;33219;47.410;9.730;2024-01-30T05:36:23;-2.40;99.90
47482;DHT22;33219;47.410;9.730;2024-01-30T05:38:50;-2.40;99.90
47482;DHT22;33219;47.410;9.730;2024-01-30T05:41:17;-2.40;99.90
47482;DHT22;33219;47.410;9.730;2024-01-30T05:43:43;-2.40;99.90
47482;DHT22;33219;47.410;9.730;2024-01-30T05:46:10;-2.40;99.90
47482;DHT22;33219;47.410;9.730;2024-01-30T05:48:37;-2.50;99.90
47482;DHT22;33219;47.410;9.730;2024-01-30T05:51:04;-2.40;99.90
47482;DHT22;33219;47.410;9.730;2024-01-30T05:53:31;-2.40;99.90
47482;DHT22;33219;47.410;9.730;2024-01-30T05:55:59;-2.40;99.90
47482;DHT22;33219;47.410;9.730;2024-01-30T05:58:25;-2.30;99.90
47482;DHT22;33219;47.410;9.730;2024-01-30T06:00:52;-2.40;99.90
47482;DHT22;33219;47.410;9.730;2024-01-30T06:03:19;-2.40;99.90
47482;DHT22;33219;47.410;9.730;2024-01-30T06:05:46;-2.40;99.90
47482;DHT22;33219;47.410;9.730;2024-01-30T06:08:13;-2.40;99.90
47482;DHT22;33219;47.410;9.730;2024-01-30T06:10:40;-2.40;99.90
47482;DHT22;33219;47.410;9.730;2024-01-30T06:13:06;-2.40;99.90
47482;DHT22;33219;47.410;9.730;2024-01-30T06:15:33;-2.30;99.90
47482;DHT22;33219;47.410;9.730;2024-01-30T06:18:00;-2.50;99.90
47482;DHT22;33219;47.410;9.730;2024-01-30T06:20:27;-2.50;99.90
47482;DHT22;33219;47.410;9.730;2024-01-30T06:22:54;-2.50;99.90
47482;DHT22;33219;47.410;9.730;2024-01-30T06:25:21;-2.40;99.90
47482;DHT22;33219;47.410;9.730;2024-01-30T06:27:48;-2.40;99.90
47482;DHT22;33219;47.410;9.730;2024-01-30T06:30:15;-2.40;99.90
47482;DHT22;33219;47.410;9.730;2024-01-30T06:32:44;-2.50;99.90
47482;DHT22;33219;47.410;9.730;2024-01-30T06:35:12;-2.50;99.90
47482;DHT22;33219;47.410;9.730;2024-01-30T06:37:50;-2.40;99.90
47482;DHT22;33219;47.410;9.730;2024-01-30T06:40:19;-2.50;99.90
47482;DHT22;33219;47.410;9.730;2024-01-30T06:43:00;-2.50;99.90
47482;DHT22;33219;47.410;9.730;2024-01-30T06:45:33;-2.40;99.90
47482;DHT22;33219;47.410;9.730;2024-01-30T06:48:00;-2.40;99.90
47482;DHT22;33219;47.410;9.730;2024-01-30T06:50:27;-2.40;99.90
47482;DHT22;33219;47.410;9.730;2024-01-30T06:52:56;-2.40;99.90
47482;DHT22;33219;47.410;9.730;2024-01-30T06:55:30;-2.30;99.90
47482;DHT22;33219;47.410;9.730;2024-01-30T06:58:14;-2.30;99.90
47482;DHT22;33219;47.410;9.730;2024-01-30T07:00:34;-2.30;99.90
47482;DHT22;33219;47.410;9.730;2024-01-30T07:03:08;-2.30;99.90
47482;DHT22;33219;47.410;9.730;2024-01-30T07:08:42;-2.20;99.90
47482;DHT22;33219;47.410;9.730;2024-01-30T07:11:26;-2.30;99.90
47482;DHT22;33219;47.410;9.730;2024-01-30T07:14:00;-2.30;99.90
47482;DHT22;33219;47.410;9.730;2024-01-30T07:16:38;-2.30;99.90
47482;DHT22;33219;47.410;9.730;2024-01-30T07:19:07;-2.30;99.90
47482;DHT22;33219;47.410;9.730;2024-01-30T07:21:40;-2.20;99.90
47482;DHT22;33219;47.410;9.730;2024-01-30T07:24:10;-2.20;99.90
47482;DHT22;33219;47.410;9.730;2024-01-30T07:26:42;-2.20;99.90
47482;DHT22;33219;47.410;9.730;2024-01-30T07:29:13;-2.10;99.90
47482;DHT22;33219;47.410;9.730;2024-01-30T07:31:46;-2.10;99.90
47482;DHT22;33219;47.410;9.730;2024-01-30T07:34:24;-2.10;99.90
47482;DHT22;33219;47.410;9.730;2024-01-30T07:36:57;-2.10;99.90
47482;DHT22;33219;47.410;9.730;2024-01-30T07:39:31;-2.10;99.90
47482;DHT22;33219;47.410;9.730;2024-01-30T07:42:05;-2.00;99.90
47482;DHT22;33219;47.410;9.730;2024-01-30T07:44:36;-1.90;99.90
47482;DHT22;33219;47.410;9.730;2024-01-30T07:47:10;-1.80;99.90
47482;DHT22;33219;47.410;9.730;2024-01-30T07:49:53;-1.50;99.90
47482;DHT22;33219;47.410;9.730;2024-01-30T07:52:31;-1.20;99.90
47482;DHT22;33219;47.410;9.730;2024-01-30T07:58:08;-0.50;99.90
47482;DHT22;33219;47.410;9.730;2024-01-30T08:00:36;-0.20;99.90
47482;DHT22;33219;47.410;9.730;2024-01-30T08:03:07;-0.10;99.90
47482;DHT22;33219;47.410;9.730;2024-01-30T08:05:42;-0.20;99.90
47482;DHT22;33219;47.410;9.730;2024-01-30T08:08:17;-0.20;99.90
47482;DHT22;33219;47.410;9.730;2024-01-30T08:10:51;-0.20;99.90
47482;DHT22;33219;47.410;9.730;2024-01-30T08:13:21;-0.10;99.90
47482;DHT22;33219;47.410;9.730;2024-01-30T08:15:56;0.00;99.90
47482;DHT22;33219;47.410;9.730;2024-01-30T08:21:02;0.10;99.90
47482;DHT22;33219;47.410;9.730;2024-01-30T08:23:39;0.10;99.90
47482;DHT22;33219;47.410;9.730;2024-01-30T08:28:57;0.60;99.90
47482;DHT22;33219;47.410;9.730;2024-01-30T08:31:37;0.70;99.90
47482;DHT22;33219;47.410;9.730;2024-01-30T08:34:14;0.90;99.90
47482;DHT22;33219;47.410;9.730;2024-01-30T08:37:04;1.20;99.90
47482;DHT22;33219;47.410;9.730;2024-01-30T08:39:44;1.40;99.90
47482;DHT22;33219;47.410;9.730;2024-01-30T08:45:09;1.60;99.90
47482;DHT22;33219;47.410;9.730;2024-01-30T08:53:40;2.20;99.90
47482;DHT22;33219;47.410;9.730;2024-01-30T08:56:08;2.60;99.90
47482;DHT22;33219;47.410;9.730;2024-01-30T08:58:35;2.70;99.90
47482;DHT22;33219;47.410;9.730;2024-01-30T09:01:02;2.70;99.90
47482;DHT22;33219;47.410;9.730;2024-01-30T09:03:31;2.80;99.90
47482;DHT22;33219;47.410;9.730;2024-01-30T09:05:58;2.60;99.90
47482;DHT22;33219;47.410;9.730;2024-01-30T09:08:25;2.60;99.90
47482;DHT22;33219;47.410;9.730;2024-01-30T09:10:52;2.20;99.90
47482;DHT22;33219;47.410;9.730;2024-01-30T09:13:21;2.20;99.90
47482;DHT22;33219;47.410;9.730;2024-01-30T09:15:51;2.20;99.90
47482;DHT22;33219;47.410;9.730;2024-01-30T09:18:18;2.20;99.90
47482;DHT22;33219;47.410;9.730;2024-01-30T09:20:45;2.20;99.90
47482;DHT22;33219;47.410;9.730;2024-01-30T09:23:14;2.20;99.90
47482;DHT22;33219;47.410;9.730;2024-01-30T09:25:45;2.20;99.90
47482;DHT22;33219;47.410;9.730;2024-01-30T09:28:21;2.20;99.90
47482;DHT22;33219;47.410;9.730;2024-01-30T09:30:47;2.30;99.90
47482;DHT22;33219;47.410;9.730;2024-01-30T09:33:15;2.20;99.90
47482;DHT22;33219;47.410;9.730;2024-01-30T09:35:46;2.10;99.90
47482;DHT22;33219;47.410;9.730;2024-01-30T09:38:16;2.10;99.90
47482;DHT22;33219;47.410;9.730;2024-01-30T09:40:44;2.10;99.90
47482;DHT22;33219;47.410;9.730;2024-01-30T09:45:57;2.10;99.90
47482;DHT22;33219;47.410;9.730;2024-01-30T09:48:25;1.80;99.90
47482;DHT22;33219;47.410;9.730;2024-01-30T09:50:55;1.80;99.90
47482;DHT22;33219;47.410;9.730;2024-01-30T09:53:23;2.00;99.90
47482;DHT22;33219;47.410;9.730;2024-01-30T09:55:50;1.90;99.90
47482;DHT22;33219;47.410;9.730;2024-01-30T09:58:19;1.90;99.90
47482;DHT22;33219;47.410;9.730;2024-01-30T10:00:50;2.00;99.90
47482;DHT22;33219;47.410;9.730;2024-01-30T10:03:19;1.90;99.90
47482;DHT22;33219;47.410;9.730;2024-01-30T10:05:50;1.90;99.90
47482;DHT22;33219;47.410;9.730;2024-01-30T10:08:25;2.10;99.90
47482;DHT22;33219;47.410;9.730;2024-01-30T10:10:55;2.20;99.90
47482;DHT22;33219;47.410;9.730;2024-01-30T10:13:33;2.30;99.90
47482;DHT22;33219;47.410;9.730;2024-01-30T10:16:08;2.20;99.90
47482;DHT22;33219;47.410;9.730;2024-01-30T10:18:38;2.40;99.90
47482;DHT22;33219;47.410;9.730;2024-01-30T10:21:08;2.50;99.90
47482;DHT22;33219;47.410;9.730;2024-01-30T10:23:37;2.70;99.90
47482;DHT22;33219;47.410;9.730;2024-01-30T10:26:25;2.70;99.90
47482;DHT22;33219;47.410;9.730;2024-01-30T10:28:57;2.90;99.90
47482;DHT22;33219;47.410;9.730;2024-01-30T10:31:37;2.90;99.90
47482;DHT22;33219;47.410;9.730;2024-01-30T10:34:14;3.10;99.90
47482;DHT22;33219;47.410;9.730;2024-01-30T10:37:15;3.10;99.90
47482;DHT22;33219;47.410;9.730;2024-01-30T10:39:59;3.30;99.90
47482;DHT22;33219;47.410;9.730;2024-01-30T10:47:29;3.70;99.90
47482;DHT22;33219;47.410;9.730;2024-01-30T10:50:00;3.90;99.90
47482;DHT22;33219;47.410;9.730;2024-01-30T10:52:30;4.00;99.90
47482;DHT22;33219;47.410;9.730;2024-01-30T10:57:47;4.10;99.90
47482;DHT22;33219;47.410;9.730;2024-01-30T11:00:19;3.90;99.90
47482;DHT22;33219;47.410;9.730;2024-01-30T11:02:56;4.00;99.90
47482;DHT22;33219;47.410;9.730;2024-01-30T11:05:25;4.00;99.90
47482;DHT22;33219;47.410;9.730;2024-01-30T11:07:56;3.90;99.90
47482;DHT22;33219;47.410;9.730;2024-01-30T11:10:30;3.80;99.90
47482;DHT22;33219;47.410;9.730;2024-01-30T11:13:18;3.90;99.90
47482;DHT22;33219;47.410;9.730;2024-01-30T11:15:33;4.10;99.90
47482;DHT22;33219;47.410;9.730;2024-01-30T11:18:04;4.10;99.90
47482;DHT22;33219;47.410;9.730;2024-01-30T11:20:41;4.20;99.90
47482;DHT22;33219;47.410;9.730;2024-01-30T11:23:15;4.20;99.90
47482;DHT22;33219;47.410;9.730;2024-01-30T11:25:45;4.50;99.90
47482;DHT22;33219;47.410;9.730;2024-01-30T11:28:14;4.50;99.90
47482;DHT22;33219;47.410;9.730;2024-01-30T11:31:02;4.60;99.90
47482;DHT22;33219;47.410;9.730;2024-01-30T11:33:27;4.60;99.90
47482;DHT22;33219;47.410;9.730;2024-01-30T11:41:47;4.80;99.90
47482;DHT22;33219;47.410;9.730;2024-01-30T11:44:27;4.70;99.90
47482;DHT22;33219;47.410;9.730;2024-01-30T11:47:08;4.80;99.90
47482;DHT22;33219;47.410;9.730;2024-01-30T11:55:29;5.00;99.90
47482;DHT22;33219;47.410;9.730;2024-01-30T11:58:03;5.10;99.90
47482;DHT22;33219;47.410;9.730;2024-01-30T12:00:41;5.20;99.90
47482;DHT22;33219;47.410;9.730;2024-01-30T12:03:29;5.40;99.90
47482;DHT22;33219;47.410;9.730;2024-01-30T12:06:16;5.50;99.90
47482;DHT22;33219;47.410;9.730;2024-01-30T12:11:18;5.60;99.90
47482;DHT22;33219;47.410;9.730;2024-01-30T12:13:51;5.60;99.90
47482;DHT22;33219;47.410;9.730;2024-01-30T12:16:31;5.60;99.90
47482;DHT22;33219;47.410;9.730;2024-01-30T12:19:00;5.70;99.90
47482;DHT22;33219;47.410;9.730;2024-01-30T12:21:32;5.80;99.90
47482;DHT22;33219;47.410;9.730;2024-01-30T12:27:08;5.80;99.90
47482;DHT22;33219;47.410;9.730;2024-01-30T12:32:19;5.60;99.90
47482;DHT22;33219;47.410;9.730;2024-01-30T12:35:16;5.50;99.90
47482;DHT22;33219;47.410;9.730;2024-01-30T12:37:46;5.40;99.90
47482;DHT22;33219;47.410;9.730;2024-01-30T12:40:19;5.50;99.90
47482;DHT22;33219;47.410;9.730;2024-01-30T12:43:01;5.50;99.90
47482;DHT22;33219;47.410;9.730;2024-01-30T12:45:36;5.60;99.90
47482;DHT22;33219;47.410;9.730;2024-01-30T12:48:07;5.60;99.90
47482;DHT22;33219;47.410;9.730;2024-01-30T12:50:40;5.60;99.90
47482;DHT22;33219;47.410;9.730;2024-01-30T12:53:11;5.70;99.90
47482;DHT22;33219;47.410;9.730;2024-01-30T12:55:43;5.70;99.90
47482;DHT22;33219;47.410;9.730;2024-01-30T12:58:14;5.80;99.90
47482;DHT22;33219;47.410;9.730;2024-01-30T13:00:47;5.90;99.90
47482;DHT22;33219;47.410;9.730;2024-01-30T13:03:19;5.90;99.90
47482;DHT22;33219;47.410;9.730;2024-01-30T13:05:50;6.00;99.90
47482;DHT22;33219;47.410;9.730;2024-01-30T13:08:21;5.80;99.90
47482;DHT22;33219;47.410;9.730;2024-01-30T13:10:53;5.90;99.90
47482;DHT22;33219;47.410;9.730;2024-01-30T13:13:24;5.90;99.90
47482;DHT22;33219;47.410;9.730;2024-01-30T13:15:56;5.90;99.90
47482;DHT22;33219;47.410;9.730;2024-01-30T13:18:30;5.90;99.90
47482;DHT22;33219;47.410;9.730;2024-01-30T13:21:04;5.90;99.90
47482;DHT22;33219;47.410;9.730;2024-01-30T13:26:10;5.90;99.90
47482;DHT22;33219;47.410;9.730;2024-01-30T13:28:57;5.90;99.90
47482;DHT22;33219;47.410;9.730;2024-01-30T13:31:28;6.00;99.90
47482;DHT22;33219;47.410;9.730;2024-01-30T13:33:59;6.20;99.90
47482;DHT22;33219;47.410;9.730;2024-01-30T13:36:30;6.10;99.90
47482;DHT22;33219;47.410;9.730;2024-01-30T13:39:02;6.10;99.90
47482;DHT22;33219;47.410;9.730;2024-01-30T13:41:33;6.00;99.90
47482;DHT22;33219;47.410;9.730;2024-01-30T13:44:05;6.00;99.90
47482;DHT22;33219;47.410;9.730;2024-01-30T13:46:36;6.00;99.90
47482;DHT22;33219;47.410;9.730;2024-01-30T13:49:08;5.90;99.90
47482;DHT22;33219;47.410;9.730;2024-01-30T13:51:40;5.80;99.90
47482;DHT22;33219;47.410;9.730;2024-01-30T13:54:11;5.70;99.90
47482;DHT22;33219;47.410;9.730;2024-01-30T13:56:43;5.60;99.90
47482;DHT22;33219;47.410;9.730;2024-01-30T13:59:12;5.60;99.90
47482;DHT22;33219;47.410;9.730;2024-01-30T14:01:46;5.50;99.90
47482;DHT22;33219;47.410;9.730;2024-01-30T14:04:16;5.50;99.90
47482;DHT22;33219;47.410;9.730;2024-01-30T14:06:46;5.50;99.90
47482;DHT22;33219;47.410;9.730;2024-01-30T14:09:17;5.50;99.90
47482;DHT22;33219;47.410;9.730;2024-01-30T14:11:47;5.50;99.90
47482;DHT22;33219;47.410;9.730;2024-01-30T14:14:19;5.50;99.90
47482;DHT22;33219;47.410;9.730;2024-01-30T14:16:54;5.60;99.90
47482;DHT22;33219;47.410;9.730;2024-01-30T14:19:25;5.60;99.90
47482;DHT22;33219;47.410;9.730;2024-01-30T14:21:54;5.60;99.90
47482;DHT22;33219;47.410;9.730;2024-01-30T14:24:22;5.70;99.90
47482;DHT22;33219;47.410;9.730;2024-01-30T14:26:49;5.70;99.90
47482;DHT22;33219;47.410;9.730;2024-01-30T14:29:17;5.80;99.90
47482;DHT22;33219;47.410;9.730;2024-01-30T14:31:44;5.80;99.90
47482;DHT22;33219;47.410;9.730;2024-01-30T14:34:11;5.90;99.90
47482;DHT22;33219;47.410;9.730;2024-01-30T14:36:38;5.90;99.90
47482;DHT22;33219;47.410;9.730;2024-01-30T14:39:05;5.90;99.90
47482;DHT22;33219;47.410;9.730;2024-01-30T14:41:33;5.90;99.90
47482;DHT22;33219;47.410;9.730;2024-01-30T14:44:00;5.90;99.90
47482;DHT22;33219;47.410;9.730;2024-01-30T14:46:28;5.90;99.90
47482;DHT22;33219;47.410;9.730;2024-01-30T14:48:55;5.90;99.90
47482;DHT22;33219;47.410;9.730;2024-01-30T14:51:23;5.90;99.90
47482;DHT22;33219;47.410;9.730;2024-01-30T14:53:50;5.90;99.90
47482;DHT22;33219;47.410;9.730;2024-01-30T14:56:19;6.00;99.90
47482;DHT22;33219;47.410;9.730;2024-01-30T14:58:47;6.00;99.90
47482;DHT22;33219;47.410;9.730;2024-01-30T15:01:14;6.00;99.90
47482;DHT22;33219;47.410;9.730;2024-01-30T15:03:42;6.00;99.90
47482;DHT22;33219;47.410;9.730;2024-01-30T15:06:09;6.00;99.90
47482;DHT22;33219;47.410;9.730;2024-01-30T15:08:36;5.90;99.90
47482;DHT22;33219;47.410;9.730;2024-01-30T15:11:05;5.90;99.90
47482;DHT22;33219;47.410;9.730;2024-01-30T15:13:32;5.90;99.90
47482;DHT22;33219;47.410;9.730;2024-01-30T15:15:59;5.80;99.90
47482;DHT22;33219;47.410;9.730;2024-01-30T15:18:28;5.80;99.90
47482;DHT22;33219;47.410;9.730;2024-01-30T15:20:54;5.70;99.90
47482;DHT22;33219;47.410;9.730;2024-01-30T15:23:24;5.70;99.90
47482;DHT22;33219;47.410;9.730;2024-01-30T15:25:51;5.60;99.90
47482;DHT22;33219;47.410;9.730;2024-01-30T15:28:18;5.60;99.90
47482;DHT22;33219;47.410;9.730;2024-01-30T15:30:47;5.50;99.90
47482;DHT22;33219;47.410;9.730;2024-01-30T15:33:14;5.50;99.90
47482;DHT22;33219;47.410;9.730;2024-01-30T15:35:41;5.40;99.90
47482;DHT22;33219;47.410;9.730;2024-01-30T15:38:07;5.40;99.90
47482;DHT22;33219;47.410;9.730;2024-01-30T15:40:34;5.40;99.90
47482;DHT22;33219;47.410;9.730;2024-01-30T15:43:01;5.40;99.90
47482;DHT22;33219;47.410;9.730;2024-01-30T15:45:28;5.30;99.90
47482;DHT22;33219;47.410;9.730;2024-01-30T15:47:55;5.20;99.90
47482;DHT22;33219;47.410;9.730;2024-01-30T15:50:23;5.20;99.90
47482;DHT22;33219;47.410;9.730;2024-01-30T15:52:50;5.20;99.90
47482;DHT22;33219;47.410;9.730;2024-01-30T15:55:17;5.10;99.90
47482;DHT22;33219;47.410;9.730;2024-01-30T15:57:46;5.00;99.90
47482;DHT22;33219;47.410;9.730;2024-01-30T16:00:13;5.00;99.90
47482;DHT22;33219;47.410;9.730;2024-01-30T16:02:40;4.90;99.90
47482;DHT22;33219;47.410;9.730;2024-01-30T16:05:07;4.80;99.90
47482;DHT22;33219;47.410;9.730;2024-01-30T16:07:34;4.70;99.90
47482;DHT22;33219;47.410;9.730;2024-01-30T16:10:01;4.70;99.90
47482;DHT22;33219;47.410;9.730;2024-01-30T16:12:28;4.60;99.90
47482;DHT22;33219;47.410;9.730;2024-01-30T16:14:55;4.60;99.90
47482;DHT22;33219;47.410;9.730;2024-01-30T16:17:22;4.60;99.90
47482;DHT22;33219;47.410;9.730;2024-01-30T16:19:48;4.50;99.90
47482;DHT22;33219;47.410;9.730;2024-01-30T16:22:17;4.50;99.90
47482;DHT22;33219;47.410;9.730;2024-01-30T16:24:44;4.50;99.90
47482;DHT22;33219;47.410;9.730;2024-01-30T16:27:12;4.50;99.90
47482;DHT22;33219;47.410;9.730;2024-01-30T16:29:39;4.50;99.90
47482;DHT22;33219;47.410;9.730;2024-01-30T16:32:06;4.40;99.90
47482;DHT22;33219;47.410;9.730;2024-01-30T16:34:33;4.40;99.90
47482;DHT22;33219;47.410;9.730;2024-01-30T16:37:00;4.40;99.90
47482;DHT22;33219;47.410;9.730;2024-01-30T16:39:27;4.40;99.90
47482;DHT22;33219;47.410;9.730;2024-01-30T16:41:53;4.40;99.90
47482;DHT22;33219;47.410;9.730;2024-01-30T16:44:20;4.40;99.90